CheckWX is a tool to help pilots better visualize weather data.  It is not intended as a substitute for an official pre-flight weather briefing.

00:42:00 UTC

EGXV METAR
RAF Leconfield Airport
Leconfield, United Kingdom
Current

52 mins ago

EGXV 262350Z AUTO 27006KT 9999 OVC042/// 08/04 Q1032
Observed
Mar-26 @ 23:50 UTC
Wind
  • 270° at 6 KTS
Visibility
10,000+ meters
Flight Rules
VFR
Cloud Levels
  • Overcast at 4,200' AGL
Temperature
C / 46°F
Dewpoint
C / 39°F
Humidity
76%
Altimeter
30.47" Hg
Pressure
1031.91 hPa
Previous

2 hours ago

EGXV 262250Z AUTO 27008KT 9999 OVC041/// 09/04 Q1032
Observed
Mar-26 @ 22:50 UTC
Wind
  • 270° at 8 KTS
Visibility
10,000+ meters
Flight Rules
VFR
Cloud Levels
  • Overcast at 4,100' AGL
Temperature
C / 48°F
Dewpoint
C / 39°F
Humidity
71%
Altimeter
30.47" Hg
Pressure
1031.91 hPa
Previous

3 hours ago

EGXV 262150Z AUTO 27008KT 9999 OVC040/// 09/04 Q1032
Observed
Mar-26 @ 21:50 UTC
Wind
  • 270° at 8 KTS
Visibility
10,000+ meters
Flight Rules
VFR
Cloud Levels
  • Overcast at 4,000' AGL
Temperature
C / 48°F
Dewpoint
C / 39°F
Humidity
71%
Altimeter
30.47" Hg
Pressure
1031.91 hPa